Time;durP1;ratioP1;P1;durP2;ratioP2;P2;SDS_P1;SDS_P2;PMS_P1;PMS_P2;Temp;Humidity;BMP_temperature;BMP_pressure;BME280_temperature;BME280_humidity;BME280_pressure;Samples;Min_cycle;Max_cycle;Signal;HPM_P1;HPM_P2
2022/09/18 00:00:51;;;;;;;1.35;0.30;;;11.10;99.90;;;;;;4756386;30;20040;-90
2022/09/18 00:03:16;;;;;;;5.68;0.52;;;10.90;99.90;;;;;;4740222;30;20589;-90
2022/09/18 00:05:42;;;;;;;4.05;0.65;;;10.90;99.90;;;;;;4740064;30;20059;-91
2022/09/18 00:08:08;;;;;;;7.30;0.73;;;10.60;99.90;;;;;;4756303;30;20055;-89
2022/09/18 00:10:42;;;;;;;3.75;0.50;;;12.10;99.90;;;;;;4739593;30;20138;-91
2022/09/18 00:13:08;;;;;;;4.13;0.40;;;11.40;99.90;;;;;;4740469;30;20151;-89
2022/09/18 00:15:38;;;;;;;6.28;0.32;;;11.40;99.90;;;;;;4745165;30;20084;-90
2022/09/18 00:18:08;;;;;;;2.40;0.32;;;11.40;99.90;;;;;;4745155;30;20510;-91
2022/09/18 00:20:35;;;;;;;4.30;0.40;;;11.40;99.90;;;;;;4755575;30;20104;-90
2022/09/18 00:23:01;;;;;;;6.15;0.63;;;11.40;99.90;;;;;;4739413;30;20230;-91
2022/09/18 00:25:28;;;;;;;3.95;0.50;;;11.50;99.90;;;;;;4738923;30;20186;-90
2022/09/18 00:27:53;;;;;;;5.80;0.50;;;11.60;99.90;;;;;;4754591;30;20059;-91
2022/09/18 00:30:21;;;;;;;4.93;0.50;;;11.60;99.90;;;;;;4739396;30;20052;-85
2022/09/18 00:37:08;;;;;;;5.93;0.30;;;11.50;99.90;;;;;;4755199;30;20051;-90
2022/09/18 00:39:36;;;;;;;3.25;0.30;;;11.60;99.90;;;;;;4754970;30;20044;-91
2022/09/18 00:42:02;;;;;;;2.53;0.30;;;12.20;99.90;;;;;;4755433;30;20486;-91
2022/09/18 00:44:30;;;;;;;1.80;0.40;;;11.50;99.90;;;;;;4739178;30;20052;-91
2022/09/18 00:47:10;;;;;;;2.17;0.20;;;11.40;99.90;;;;;;4738792;30;20059;-92
2022/09/18 00:49:57;;;;;;;3.10;0.40;;;12.10;99.90;;;;;;4738922;30;20071;-92
2022/09/18 00:52:28;;;;;;;2.90;0.40;;;11.70;99.90;;;;;;4737067;30;20056;-89
2022/09/18 00:55:41;;;;;;;4.25;0.57;;;11.40;99.90;;;;;;4724432;30;20459;-92
2022/09/18 00:58:08;;;;;;;5.07;0.65;;;11.40;99.90;;;;;;4754209;30;20067;-92
2022/09/18 01:00:34;;;;;;;3.92;0.30;;;11.60;99.90;;;;;;4744962;30;20135;-88
2022/09/18 01:03:03;;;;;;;4.57;0.52;;;11.60;99.90;;;;;;4746551;30;20112;-90
2022/09/18 01:05:47;;;;;;;1.95;0.40;;;11.80;99.90;;;;;;4756229;30;20054;-90
2022/09/18 01:08:45;;;;;;;5.78;0.50;;;11.60;99.90;;;;;;4733613;30;20135;-91
2022/09/18 01:11:20;;;;;;;3.80;0.40;;;11.70;99.90;;;;;;4702025;30;20099;-89
2022/09/18 01:14:28;;;;;;;3.03;0.50;;;11.70;99.90;;;;;;4686482;30;20165;-90
2022/09/18 01:17:08;;;;;;;2.72;0.40;;;11.60;99.90;;;;;;4699088;30;20111;-90
2022/09/18 01:20:04;;;;;;;7.40;0.40;;;11.60;99.90;;;;;;4699378;30;20449;-92
2022/09/18 01:22:39;;;;;;;5.85;0.32;;;11.50;99.90;;;;;;4684524;30;20058;-91
2022/09/18 01:25:32;;;;;;;3.50;0.45;;;11.60;99.90;;;;;;4670681;30;20070;-91
2022/09/18 01:28:12;;;;;;;5.85;0.68;;;11.80;99.90;;;;;;4685366;30;20092;-91
2022/09/18 01:30:41;;;;;;;2.10;0.30;;;11.50;99.90;;;;;;4688934;30;20064;-88
2022/09/18 01:33:17;;;;;;;4.00;0.30;;;11.50;99.90;;;;;;4695369;30;20057;-86
2022/09/18 01:35:48;;;;;;;5.50;1.00;;;11.70;99.90;;;;;;4692580;30;20433;-91
2022/09/18 01:38:29;;;;;;;2.17;0.40;;;11.40;99.90;;;;;;4701526;30;20133;-89
2022/09/18 01:41:20;;;;;;;5.95;0.50;;;11.50;99.90;;;;;;4687221;30;20073;-87
2022/09/18 01:43:57;;;;;;;2.75;0.35;;;11.50;99.90;;;;;;4699414;30;20073;-86
2022/09/18 01:56:56;;;;;;;6.13;1.05;;;11.20;99.90;;;;;;4753158;30;20525;-86
2022/09/18 01:59:27;;;;;;;2.53;0.30;;;11.20;99.90;;;;;;4737344;30;20494;-86
2022/09/18 02:01:56;;;;;;;3.85;0.88;;;11.10;99.90;;;;;;4752942;30;20044;-85
2022/09/18 02:04:27;;;;;;;3.78;0.50;;;11.10;99.90;;;;;;4753151;30;20134;-86
2022/09/18 02:07:03;;;;;;;4.03;0.50;;;11.00;99.90;;;;;;4722318;30;20052;-85
2022/09/18 02:09:30;;;;;;;5.63;0.88;;;11.00;99.90;;;;;;4753151;30;20062;-85
2022/09/18 02:11:59;;;;;;;5.18;0.47;;;11.00;99.90;;;;;;4737118;30;20117;-85
2022/09/18 02:14:31;;;;;;;1.55;0.20;;;11.00;99.90;;;;;;4722299;30;20109;-87
2022/09/18 02:17:06;;;;;;;2.10;0.45;;;11.60;99.90;;;;;;4736345;30;20060;-86
2022/09/18 02:19:41;;;;;;;1.35;0.40;;;11.00;99.90;;;;;;4722335;30;20052;-86
2022/09/18 02:22:14;;;;;;;6.22;0.55;;;11.10;99.90;;;;;;4736168;30;20060;-85
2022/09/18 02:24:44;;;;;;;3.10;1.02;;;10.90;99.90;;;;;;4736456;30;20124;-86
2022/09/18 02:27:12;;;;;;;4.22;0.40;;;10.90;99.90;;;;;;4721646;30;20060;-86
2022/09/18 02:29:41;;;;;;;5.15;0.70;;;11.00;99.90;;;;;;4736575;30;20059;-86
2022/09/18 02:32:06;;;;;;;4.30;0.20;;;11.40;99.90;;;;;;4736531;30;20052;-86
2022/09/18 02:34:33;;;;;;;2.45;0.50;;;10.90;99.90;;;;;;4752719;30;20127;-89
2022/09/18 02:37:31;;;;;;;6.38;0.70;;;11.60;99.90;;;;;;4752417;30;20044;-85
2022/09/18 02:40:37;;;;;;;1.80;0.35;;;10.90;99.90;;;;;;4736038;30;20087;-88
2022/09/18 02:43:17;;;;;;;3.38;0.45;;;10.90;99.90;;;;;;4697370;30;20062;-84
2022/09/18 02:45:54;;;;;;;3.90;0.55;;;10.90;99.90;;;;;;4682591;30;20057;-85
2022/09/18 02:48:30;;;;;;;3.13;0.40;;;11.00;99.90;;;;;;4697191;30;20056;-86
2022/09/18 02:51:24;;;;;;;2.35;0.32;;;11.00;99.90;;;;;;4697545;30;20480;-86
2022/09/18 02:54:04;;;;;;;3.05;0.40;;;11.00;99.90;;;;;;4697279;30;20075;-87
2022/09/18 02:56:44;;;;;;;4.28;0.70;;;11.00;99.90;;;;;;4697267;30;20548;-85
2022/09/18 02:59:18;;;;;;;5.32;0.40;;;11.00;99.90;;;;;;4682633;30;20096;-88
2022/09/18 03:01:47;;;;;;;5.07;0.50;;;11.10;99.90;;;;;;4683113;30;20061;-87
2022/09/18 03:04:18;;;;;;;3.55;0.38;;;11.90;99.90;;;;;;4682637;30;20563;-86
2022/09/18 03:06:44;;;;;;;2.97;0.40;;;11.10;99.90;;;;;;4697565;30;20444;-85
2022/09/18 03:09:12;;;;;;;3.33;0.45;;;11.10;99.90;;;;;;4683015;30;20059;-85
2022/09/18 03:11:38;;;;;;;3.45;0.50;;;11.20;99.90;;;;;;4682993;30;20137;-88
2022/09/18 03:14:04;;;;;;;3.40;0.40;;;11.30;99.90;;;;;;4682478;30;20061;-88
2022/09/18 03:16:30;;;;;;;5.68;0.40;;;11.20;99.90;;;;;;4690037;30;20052;-88
2022/09/18 03:18:58;;;;;;;1.77;0.40;;;11.20;99.90;;;;;;4720067;30;20506;-86
2022/09/18 03:21:27;;;;;;;6.28;0.60;;;11.10;99.90;;;;;;4724801;30;20090;-86
2022/09/18 03:24:02;;;;;;;2.63;0.20;;;11.60;99.90;;;;;;4753938;30;20143;-87
2022/09/18 03:26:37;;;;;;;2.90;0.30;;;11.00;99.90;;;;;;4725446;30;20060;-86
2022/09/18 03:29:14;;;;;;;1.05;0.45;;;11.80;99.90;;;;;;4722384;30;20055;-87
2022/09/18 03:31:43;;;;;;;4.95;0.40;;;11.10;99.90;;;;;;4739318;30;20071;-87
2022/09/18 03:37:54;;;;;;;5.65;0.40;;;10.80;99.90;;;;;;4752247;30;20097;-87
2022/09/18 03:40:26;;;;;;;4.82;0.93;;;11.10;99.90;;;;;;4712522;30;20063;-86
2022/09/18 03:43:10;;;;;;;4.25;0.30;;;11.40;99.90;;;;;;4754349;30;20052;-87
2022/09/18 03:45:43;;;;;;;5.65;0.52;;;10.80;99.90;;;;;;4738484;30;20056;-87
2022/09/18 03:48:12;;;;;;;7.93;1.30;;;10.90;99.90;;;;;;4738624;30;20173;-88
2022/09/18 03:50:38;;;;;;;1.85;0.30;;;11.80;99.90;;;;;;4738880;30;20044;-89
2022/09/18 03:53:04;;;;;;;3.55;0.43;;;10.90;99.90;;;;;;4738792;30;20585;-87
2022/09/18 03:55:29;;;;;;;3.75;0.50;;;10.90;99.90;;;;;;4754388;30;20056;-87
2022/09/18 03:57:58;;;;;;;4.43;0.40;;;10.90;99.90;;;;;;4754043;30;20044;-87
2022/09/18 04:00:24;;;;;;;3.08;0.43;;;11.00;99.90;;;;;;4738204;30;20394;-86
2022/09/18 04:02:50;;;;;;;2.70;0.40;;;10.80;99.90;;;;;;4738162;30;20098;-86
2022/09/18 04:05:16;;;;;;;4.32;0.25;;;10.90;99.90;;;;;;4723986;30;20056;-87
2022/09/18 04:07:42;;;;;;;4.03;0.57;;;10.80;99.90;;;;;;4738285;30;20060;-89
2022/09/18 04:10:10;;;;;;;0.82;0.22;;;11.80;99.90;;;;;;4754523;30;20559;-86
2022/09/18 04:12:36;;;;;;;3.72;0.55;;;10.80;99.90;;;;;;4737724;30;20064;-87
2022/09/18 04:15:05;;;;;;;2.55;0.28;;;10.80;99.90;;;;;;4753908;30;20048;-87
2022/09/18 04:17:31;;;;;;;3.30;0.57;;;10.80;99.90;;;;;;4737972;30;20052;-87
2022/09/18 04:19:57;;;;;;;6.45;0.93;;;11.70;99.90;;;;;;4737755;30;20439;-87
2022/09/18 04:22:23;;;;;;;3.55;0.60;;;10.80;99.90;;;;;;4723410;30;20089;-86
2022/09/18 04:24:49;;;;;;;1.55;0.20;;;11.30;99.90;;;;;;4753742;30;20396;-86
2022/09/18 04:27:15;;;;;;;0.73;0.20;;;10.70;99.90;;;;;;4723557;30;20056;-87
2022/09/18 04:29:41;;;;;;;1.70;0.20;;;10.50;99.90;;;;;;4738197;30;20172;-86
2022/09/18 04:32:07;;;;;;;0.43;0.10;;;10.60;99.90;;;;;;4753150;30;20064;-86
2022/09/18 04:34:32;;;;;;;2.00;0.30;;;10.60;99.90;;;;;;4737819;30;20077;-87
2022/09/18 04:36:58;;;;;;;0.65;0.20;;;10.80;99.90;;;;;;4753883;30;20055;-85
2022/09/18 04:39:27;;;;;;;0.65;0.17;;;10.50;99.90;;;;;;4753709;30;20051;-85
2022/09/18 04:41:53;;;;;;;0.30;0.10;;;10.60;99.90;;;;;;4737430;30;20076;-87
2022/09/18 04:44:18;;;;;;;0.85;0.20;;;10.30;99.90;;;;;;4754049;30;20427;-88
2022/09/18 04:46:50;;;;;;;0.50;0.10;;;11.00;99.90;;;;;;4737649;30;20079;-87
2022/09/18 04:49:18;;;;;;;0.73;0.10;;;10.40;99.90;;;;;;4738043;30;20044;-87
2022/09/18 04:51:44;;;;;;;0.35;0.10;;;10.40;99.90;;;;;;4753851;30;20499;-87
2022/09/18 04:54:10;;;;;;;1.90;0.20;;;10.40;99.90;;;;;;4753829;30;20476;-87
2022/09/18 04:56:36;;;;;;;5.45;0.30;;;10.50;99.90;;;;;;4738234;30;20064;-86
2022/09/18 04:59:02;;;;;;;6.35;0.47;;;10.50;99.90;;;;;;4753427;30;20044;-88
2022/09/18 05:01:29;;;;;;;4.18;0.82;;;10.50;99.90;;;;;;4737507;30;20114;-88
2022/09/18 05:04:15;;;;;;;;;;;;;;;;;;;;;
2022/09/18 05:10:27;;;;;;;1.00;0.30;;;10.40;99.90;;;;;;4751801;30;20506;-87
2022/09/18 05:13:55;;;;;;;;;;;;;;;;;;;;;
2022/09/18 05:17:31;;;;;;;;;;;;;;;;;;;;;
2022/09/18 05:32:37;;;;;;;0.30;0.10;;;10.50;99.90;;;;;;4727896;30;20078;-86
2022/09/18 05:36:19;;;;;;;0.40;0.40;;;10.50;99.90;;;;;;4718062;30;20477;-87
2022/09/18 05:39:24;;;;;;;3.40;0.10;;;10.50;99.90;;;;;;4711926;30;20064;-86
2022/09/18 05:41:55;;;;;;;1.48;0.30;;;10.50;99.90;;;;;;4697421;30;20134;-89
2022/09/18 05:44:20;;;;;;;1.25;0.20;;;11.30;99.90;;;;;;4718421;30;20074;-86
2022/09/18 05:46:47;;;;;;;3.67;0.30;;;10.40;99.90;;;;;;4732667;30;20074;-86
2022/09/18 05:49:24;;;;;;;2.58;0.40;;;11.10;99.90;;;;;;4732184;30;20056;-87
2022/09/18 05:55:07;;;;;;;2.70;0.30;;;11.00;99.90;;;;;;4642715;30;20064;-85
2022/09/18 06:01:45;;;;;;;2.17;0.32;;;10.80;99.90;;;;;;4755481;30;20063;-88
2022/09/18 07:13:13;;;;;;;2.28;0.32;;;11.10;99.90;;;;;;4811903;24;20056;31
2022/09/18 14:00:36;;;;;;;1.65;0.70;;;13.80;99.90;;;;;;4810916;24;20064;-88
2022/09/18 14:03:31;;;;;;;5.65;0.60;;;13.80;99.90;;;;;;4754941;30;20173;-89
2022/09/18 14:06:42;;;;;;;8.18;0.90;;;13.80;99.90;;;;;;4738488;30;20124;-92
2022/09/18 14:10:23;;;;;;;3.15;0.60;;;13.90;99.90;;;;;;4766938;30;20063;-89
2022/09/18 14:15:58;;;;;;;;;;;;;;;;;;;;;
2022/09/18 14:22:29;;;;;;;5.90;0.77;;;15.10;99.90;;;;;;4770689;24;20064;-86
2022/09/18 14:25:37;;;;;;;8.30;0.63;;;15.40;99.90;;;;;;4737682;30;20066;-87
2022/09/18 14:28:05;;;;;;;5.63;0.50;;;15.50;99.90;;;;;;4737812;30;20049;-89
2022/09/18 14:30:31;;;;;;;2.67;0.55;;;15.70;99.90;;;;;;4771268;24;20126;-87
2022/09/18 14:33:22;;;;;;;5.25;0.70;;;15.50;99.90;;;;;;4767762;30;20059;-89
2022/09/18 14:36:17;;;;;;;4.97;0.47;;;15.30;99.90;;;;;;4755384;30;20052;-86
2022/09/18 14:38:48;;;;;;;5.00;0.60;;;16.00;99.80;;;;;;4742851;30;20052;-89
2022/09/18 14:41:50;;;;;;;5.20;0.95;;;15.80;98.90;;;;;;4751525;30;20490;-88
2022/09/18 14:44:29;;;;;;;4.95;0.50;;;16.10;99.20;;;;;;4767455;30;20054;-86
2022/09/18 15:02:39;;;;;;;;;;;;;;;;;;;;;
2022/09/18 15:08:57;;;;;;;2.67;1.00;;;15.30;99.90;;;;;;4769765;30;20043;-87
2022/09/18 15:11:33;;;;;;;2.30;0.40;;;15.10;99.90;;;;;;4755042;30;20062;-88
2022/09/18 15:14:19;;;;;;;5.88;0.50;;;15.10;99.90;;;;;;4735446;30;20062;-84
2022/09/18 15:17:25;;;;;;;4.30;0.50;;;14.70;99.90;;;;;;4747703;30;20087;-87
2022/09/18 15:20:31;;;;;;;;;;;;;;;;;;;;;
2022/09/18 15:23:29;;;;;;;8.48;0.70;;;15.10;99.90;;;;;;4712521;30;20345;-88
2022/09/18 15:26:11;;;;;;;3.22;0.20;;;15.00;99.90;;;;;;4723538;30;20538;-90
2022/09/18 15:28:41;;;;;;;4.15;0.50;;;15.10;99.90;;;;;;4721209;30;20554;-88
2022/09/18 15:31:09;;;;;;;6.38;0.60;;;14.90;99.90;;;;;;4726597;30;20077;-87
2022/09/18 15:34:05;;;;;;;3.15;0.50;;;14.80;99.90;;;;;;4722118;30;20147;-86
2022/09/18 15:36:37;;;;;;;1.73;0.38;;;14.90;99.90;;;;;;4707390;30;20060;-87
2022/09/18 15:42:29;;;;;;;2.13;0.30;;;14.70;99.90;;;;;;4712790;30;20415;-90
2022/09/18 15:45:20;;;;;;;5.15;0.40;;;14.60;99.90;;;;;;4719831;30;20060;-87
2022/09/18 15:47:47;;;;;;;8.13;0.50;;;14.60;99.90;;;;;;4721725;30;20060;-88
2022/09/18 15:50:14;;;;;;;4.85;0.52;;;14.50;99.90;;;;;;4736484;30;20048;-86
2022/09/18 15:52:59;;;;;;;7.82;0.93;;;14.60;99.90;;;;;;4735462;30;20095;-87
2022/09/18 15:55:30;;;;;;;1.55;0.47;;;14.50;99.90;;;;;;4715805;30;20053;-87
2022/09/18 15:58:06;;;;;;;5.57;0.45;;;14.20;99.90;;;;;;4721738;30;20057;-87
2022/09/18 16:00:36;;;;;;;;;;;14.20;99.90;;;;;;4760741;30;20064;-88
2022/09/18 16:03:08;;;;;;;0.95;0.30;;;14.00;99.90;;;;;;4750383;30;19926;-86
2022/09/18 16:05:36;;;;;;;7.10;0.50;;;14.00;99.90;;;;;;4767441;24;20034;-88
2022/09/18 16:08:21;;;;;;;3.28;0.50;;;13.70;99.90;;;;;;4773298;30;20410;-88
2022/09/18 16:10:49;;;;;;;7.28;0.82;;;14.10;99.90;;;;;;4744281;30;20054;-85
2022/09/18 16:13:27;;;;;;;11.43;0.60;;;14.00;99.90;;;;;;4741178;30;20048;-87
2022/09/18 16:16:25;;;;;;;4.13;0.68;;;14.10;99.90;;;;;;4766683;30;20052;-85
2022/09/18 16:19:06;;;;;;;7.28;0.75;;;14.20;99.90;;;;;;4734276;30;20064;-85
2022/09/18 16:21:39;;;;;;;4.65;0.77;;;14.50;99.90;;;;;;4734372;30;20098;-86
2022/09/18 16:24:18;;;;;;;3.97;0.40;;;14.50;99.90;;;;;;4717356;30;20241;-83
2022/09/18 16:26:43;;;;;;;6.43;0.65;;;14.60;99.90;;;;;;4716944;30;20056;-87
2022/09/18 16:29:18;;;;;;;4.85;0.80;;;14.60;99.90;;;;;;4702632;30;20061;-89
2022/09/18 16:31:45;;;;;;;6.95;0.60;;;14.20;99.90;;;;;;4702877;30;20060;-89
2022/09/18 16:34:26;;;;;;;3.50;0.30;;;13.70;99.90;;;;;;4731343;30;20158;-87
2022/09/18 16:36:56;;;;;;;2.22;0.30;;;13.40;99.90;;;;;;4703672;30;20179;-84
2022/09/18 16:39:24;;;;;;;4.13;0.40;;;12.90;99.90;;;;;;4717566;30;20053;-86
2022/09/18 16:41:50;;;;;;;3.15;0.40;;;12.50;99.90;;;;;;4719818;30;20064;-85
2022/09/18 16:44:18;;;;;;;2.17;0.30;;;12.30;99.90;;;;;;4721372;30;20056;-86
2022/09/18 16:47:08;;;;;;;5.25;1.42;;;12.10;99.90;;;;;;4717194;30;20132;-87
2022/09/18 16:53:16;;;;;;;8.07;0.60;;;11.90;99.90;;;;;;4783227;24;20086;-88
2022/09/18 17:13:50;;;;;;;6.13;0.80;;;11.10;99.90;;;;;;4713713;30;20060;-88
2022/09/18 17:19:12;;;;;;;;;;;;;;;;;;;;;
2022/09/18 17:38:02;;;;;;;4.60;0.50;;;11.90;99.90;;;;;;4781719;24;20063;-90
2022/09/18 17:41:20;;;;;;;3.67;0.50;;;11.70;99.90;;;;;;4725752;30;20503;-92
2022/09/18 17:54:09;;;;;;;7.72;0.88;;;11.80;99.90;;;;;;5061607;24;20076;-85
2022/09/18 17:57:14;;;;;;;5.50;0.80;;;12.70;99.90;;;;;;4785359;30;20055;-89
2022/09/18 17:59:44;;;;;;;13.85;1.13;;;11.10;99.90;;;;;;4762546;30;20499;-88
2022/09/18 18:02:12;;;;;;;10.68;0.98;;;11.40;99.90;;;;;;4776764;24;20052;-90
2022/09/18 18:04:38;;;;;;;10.98;1.00;;;11.50;99.90;;;;;;4761476;30;20494;-89
2022/09/18 18:10:46;;;;;;;12.68;1.30;;;11.40;99.90;;;;;;4785234;30;20535;-91
2022/09/18 18:13:12;;;;;;;13.25;2.05;;;11.30;99.90;;;;;;4787964;30;20405;-89
2022/09/18 18:16:21;;;;;;;10.60;1.20;;;12.30;99.90;;;;;;4772950;30;20058;-89
2022/09/18 18:19:02;;;;;;;6.53;0.80;;;11.20;99.90;;;;;;4780685;30;20051;-90
2022/09/18 18:21:37;;;;;;;7.28;1.05;;;10.80;99.90;;;;;;4786276;24;20055;-88
2022/09/18 18:24:53;;;;;;;5.83;0.80;;;11.40;99.90;;;;;;4787500;30;20055;-90
2022/09/18 18:27:21;;;;;;;12.35;1.02;;;11.90;99.90;;;;;;4754973;30;20301;-87
2022/09/18 18:32:21;;;;;;;4.95;0.52;;;11.40;99.90;;;;;;4775129;24;20056;-87
2022/09/18 18:38:43;;;;;;;6.90;1.55;;;11.50;99.90;;;;;;4760388;24;20063;-88
2022/09/18 18:55:34;;;;;;;8.50;1.02;;;11.90;99.90;;;;;;4777184;30;20132;-91
2022/09/18 18:58:26;;;;;;;9.68;0.98;;;12.10;99.90;;;;;;4753410;24;20162;-91
2022/09/18 19:23:15;;;;;;;11.15;1.23;;;11.50;99.90;;;;;;4768411;30;20125;-91
2022/09/18 19:25:57;;;;;;;8.38;1.30;;;11.60;99.90;;;;;;4776073;24;20059;-92
2022/09/18 19:28:33;;;;;;;15.75;1.85;;;12.30;99.90;;;;;;4763788;30;20058;-91
2022/09/18 19:31:03;;;;;;;12.20;1.48;;;11.60;99.90;;;;;;4742256;30;20550;-89
2022/09/18 19:58:15;;;;;;;11.95;1.52;;;12.30;99.90;;;;;;5086618;24;20091;-90
2022/09/18 20:00:42;;;;;;;8.73;1.67;;;12.30;99.90;;;;;;4770892;30;20051;-87
2022/09/18 20:03:11;;;;;;;5.97;0.52;;;12.30;99.90;;;;;;4781358;30;20063;-88
2022/09/18 20:35:17;;;;;;;8.37;1.00;;;12.00;99.90;;;;;;5128407;24;20787;-87
2022/09/18 20:44:26;;;;;;;;;;;;;;;;;;;;;
2022/09/18 20:47:17;;;;;;;8.27;1.10;;;11.30;99.90;;;;;;4746873;24;20044;-90
2022/09/18 20:50:26;;;;;;;8.52;0.65;;;11.60;99.90;;;;;;4735171;30;20060;-89
2022/09/18 21:03:00;;;;;;;5.07;0.73;;;11.60;99.90;;;;;;4685170;30;20050;-90
2022/09/18 21:05:31;;;;;;;6.60;0.60;;;11.70;99.90;;;;;;4695162;30;20061;-89
2022/09/18 21:08:19;;;;;;;6.53;0.70;;;11.70;99.90;;;;;;4698544;30;20473;-88
2022/09/18 21:19:05;;;;;;;;;;;;;;;;;;;;;
2022/09/18 21:29:29;;;;;;;6.28;0.75;;;11.90;99.90;;;;;;4547119;31;20067;-89
2022/09/18 21:36:33;;;;;;;8.60;0.88;;;12.00;99.90;;;;;;3947498;30;24097482;-89
2022/09/18 21:39:56;;;;;;;5.30;0.60;;;11.80;99.90;;;;;;4709514;30;20412;-88
2022/09/18 21:43:24;;;;;;;;;;;;;;;;;;;;;
2022/09/18 21:47:06;;;;;;;5.78;0.93;;;12.20;99.90;;;;;;4646736;30;20067;-88
2022/09/18 21:50:35;;;;;;;3.33;0.50;;;11.80;99.90;;;;;;4581590;31;20419;-88
2022/09/18 21:57:12;;;;;;;6.68;0.80;;;11.60;99.90;;;;;;4579555;31;20099;-87
2022/09/18 22:20:36;;;;;;;;;;;;;;;;;;;;;
2022/09/18 22:31:32;;;;;;;4.05;0.47;;;11.80;99.90;;;;;;4618036;30;20055;-87
2022/09/18 22:44:03;;;;;;;7.32;0.90;;;11.30;99.90;;;;;;4618121;30;20609;-89
2022/09/18 22:47:24;;;;;;;12.35;0.80;;;11.90;99.90;;;;;;4615765;31;20115;-91
2022/09/18 22:50:06;;;;;;;9.02;0.73;;;12.30;99.90;;;;;;4615434;31;20059;-87
2022/09/18 22:57:17;;;;;;;5.07;0.80;;;12.50;99.90;;;;;;4776458;24;20529;-86
2022/09/18 22:59:46;;;;;;;12.25;1.48;;;12.10;99.90;;;;;;4745096;30;20145;-85
2022/09/18 23:09:09;;;;;;;;;;;;;;;;;;;;;
